sensor_id;sensor_type;location;lat;lon;timestamp;pressure;altitude;pressure_sealevel;temperature;humidity
24962;BME280;12992;50.884;13.668;2023-03-31T00:00:27;96647.22;;;9.84;100.00
24962;BME280;12992;50.884;13.668;2023-03-31T00:02:53;96654.31;;;9.90;100.00
24962;BME280;12992;50.884;13.668;2023-03-31T00:05:20;96654.03;;;9.97;100.00
24962;BME280;12992;50.884;13.668;2023-03-31T00:07:55;96657.06;;;10.01;100.00
24962;BME280;12992;50.884;13.668;2023-03-31T00:10:33;96642.06;;;9.98;100.00
24962;BME280;12992;50.884;13.668;2023-03-31T00:13:00;96643.44;;;10.01;100.00
24962;BME280;12992;50.884;13.668;2023-03-31T00:15:26;96644.53;;;10.00;100.00
24962;BME280;12992;50.884;13.668;2023-03-31T00:17:52;96628.22;;;10.05;100.00
24962;BME280;12992;50.884;13.668;2023-03-31T00:20:18;96629.03;;;10.05;100.00
24962;BME280;12992;50.884;13.668;2023-03-31T00:22:44;96608.59;;;9.98;100.00
24962;BME280;12992;50.884;13.668;2023-03-31T00:25:10;96611.91;;;10.00;100.00
24962;BME280;12992;50.884;13.668;2023-03-31T00:27:36;96615.44;;;10.00;100.00
24962;BME280;12992;50.884;13.668;2023-03-31T00:30:01;96610.25;;;9.99;100.00
24962;BME280;12992;50.884;13.668;2023-03-31T00:32:28;96608.88;;;9.96;100.00
24962;BME280;12992;50.884;13.668;2023-03-31T00:34:53;96606.44;;;9.94;100.00
24962;BME280;12992;50.884;13.668;2023-03-31T00:37:18;96612.69;;;9.95;100.00
24962;BME280;12992;50.884;13.668;2023-03-31T00:39:44;96609.16;;;9.94;100.00
24962;BME280;12992;50.884;13.668;2023-03-31T00:42:10;96604.25;;;9.97;100.00
24962;BME280;12992;50.884;13.668;2023-03-31T00:45:19;96601.53;;;9.97;100.00
24962;BME280;12992;50.884;13.668;2023-03-31T00:47:53;96588.22;;;9.90;100.00
24962;BME280;12992;50.884;13.668;2023-03-31T00:50:22;96585.50;;;9.95;100.00
24962;BME280;12992;50.884;13.668;2023-03-31T00:53:04;96592.31;;;10.03;100.00
24962;BME280;12992;50.884;13.668;2023-03-31T00:55:38;96571.09;;;10.00;100.00
24962;BME280;12992;50.884;13.668;2023-03-31T00:58:05;96554.22;;;9.92;100.00
24962;BME280;12992;50.884;13.668;2023-03-31T01:00:31;96545.25;;;9.82;100.00
24962;BME280;12992;50.884;13.668;2023-03-31T01:02:58;96537.59;;;9.79;100.00
24962;BME280;12992;50.884;13.668;2023-03-31T01:05:44;96542.22;;;9.78;100.00
24962;BME280;12992;50.884;13.668;2023-03-31T01:08:13;96547.66;;;9.78;100.00
24962;BME280;12992;50.884;13.668;2023-03-31T01:10:40;96538.41;;;9.79;100.00
24962;BME280;12992;50.884;13.668;2023-03-31T01:13:09;96533.53;;;9.76;100.00
24962;BME280;12992;50.884;13.668;2023-03-31T01:15:36;96526.47;;;9.75;100.00
24962;BME280;12992;50.884;13.668;2023-03-31T01:18:03;96533.25;;;9.78;100.00
24962;BME280;12992;50.884;13.668;2023-03-31T01:23:27;96527.03;;;9.82;100.00
24962;BME280;12992;50.884;13.668;2023-03-31T01:26:14;96517.22;;;9.81;100.00
24962;BME280;12992;50.884;13.668;2023-03-31T01:40:18;96483.75;;;9.55;100.00
24962;BME280;12992;50.884;13.668;2023-03-31T01:48:31;96470.69;;;9.42;100.00
24962;BME280;12992;50.884;13.668;2023-03-31T01:51:28;96464.97;;;9.39;100.00
24962;BME280;12992;50.884;13.668;2023-03-31T01:54:21;96458.69;;;9.33;100.00
24962;BME280;12992;50.884;13.668;2023-03-31T01:56:58;96445.94;;;9.28;100.00
24962;BME280;12992;50.884;13.668;2023-03-31T01:59:34;96456.81;;;9.28;100.00
24962;BME280;12992;50.884;13.668;2023-03-31T02:02:07;96446.19;;;9.22;100.00
24962;BME280;12992;50.884;13.668;2023-03-31T02:04:45;96436.94;;;9.18;100.00
24962;BME280;12992;50.884;13.668;2023-03-31T02:07:17;96435.31;;;9.17;100.00
24962;BME280;12992;50.884;13.668;2023-03-31T02:09:48;96433.97;;;9.19;100.00
24962;BME280;12992;50.884;13.668;2023-03-31T02:12:15;96409.19;;;9.00;100.00
24962;BME280;12992;50.884;13.668;2023-03-31T02:14:44;96427.44;;;9.10;100.00
24962;BME280;12992;50.884;13.668;2023-03-31T02:17:16;96431.50;;;9.13;100.00
24962;BME280;12992;50.884;13.668;2023-03-31T02:19:46;96431.78;;;9.16;100.00
24962;BME280;12992;50.884;13.668;2023-03-31T02:22:13;96436.94;;;9.23;100.00
24962;BME280;12992;50.884;13.668;2023-03-31T02:24:40;96434.78;;;9.25;100.00
24962;BME280;12992;50.884;13.668;2023-03-31T02:27:25;96419.81;;;9.17;100.00
24962;BME280;12992;50.884;13.668;2023-03-31T02:29:53;96411.41;;;9.14;100.00
24962;BME280;12992;50.884;13.668;2023-03-31T02:32:40;96412.50;;;9.13;100.00
24962;BME280;12992;50.884;13.668;2023-03-31T02:35:13;96414.41;;;9.12;100.00
24962;BME280;12992;50.884;13.668;2023-03-31T02:37:39;96400.78;;;9.07;100.00
24962;BME280;12992;50.884;13.668;2023-03-31T02:40:08;96401.06;;;9.05;100.00
24962;BME280;12992;50.884;13.668;2023-03-31T02:42:37;96400.78;;;9.02;100.00
24962;BME280;12992;50.884;13.668;2023-03-31T02:45:04;96380.69;;;8.93;100.00
24962;BME280;12992;50.884;13.668;2023-03-31T02:47:30;96384.22;;;8.93;100.00
24962;BME280;12992;50.884;13.668;2023-03-31T02:49:58;96371.44;;;8.89;100.00
24962;BME280;12992;50.884;13.668;2023-03-31T02:52:52;96380.94;;;8.96;100.00
24962;BME280;12992;50.884;13.668;2023-03-31T02:55:57;96367.91;;;8.88;100.00
24962;BME280;12992;50.884;13.668;2023-03-31T02:58:33;96371.69;;;8.82;100.00
24962;BME280;12992;50.884;13.668;2023-03-31T03:03:57;96377.94;;;8.88;100.00
24962;BME280;12992;50.884;13.668;2023-03-31T03:06:40;96388.28;;;8.96;100.00
24962;BME280;12992;50.884;13.668;2023-03-31T03:12:04;96393.72;;;9.06;100.00
24962;BME280;12992;50.884;13.668;2023-03-31T03:14:41;96381.25;;;9.05;100.00
24962;BME280;12992;50.884;13.668;2023-03-31T03:17:29;96372.28;;;9.04;100.00
24962;BME280;12992;50.884;13.668;2023-03-31T03:19:59;96365.19;;;8.98;100.00
24962;BME280;12992;50.884;13.668;2023-03-31T03:22:25;96366.81;;;8.99;100.00
24962;BME280;12992;50.884;13.668;2023-03-31T03:24:50;96363.59;;;9.02;100.00
24962;BME280;12992;50.884;13.668;2023-03-31T03:27:17;96367.69;;;9.10;100.00
24962;BME280;12992;50.884;13.668;2023-03-31T03:29:42;96364.69;;;9.12;100.00
24962;BME280;12992;50.884;13.668;2023-03-31T03:32:08;96372.84;;;9.22;100.00
24962;BME280;12992;50.884;13.668;2023-03-31T03:34:34;96370.94;;;9.27;100.00
24962;BME280;12992;50.884;13.668;2023-03-31T03:36:59;96373.94;;;9.31;100.00
24962;BME280;12992;50.884;13.668;2023-03-31T03:39:25;96366.59;;;9.31;100.00
24962;BME280;12992;50.884;13.668;2023-03-31T03:41:50;96371.75;;;9.33;100.00
24962;BME280;12992;50.884;13.668;2023-03-31T03:44:15;96364.97;;;9.30;100.00
24962;BME280;12992;50.884;13.668;2023-03-31T03:46:40;96365.25;;;9.29;100.00
24962;BME280;12992;50.884;13.668;2023-03-31T03:49:06;96371.50;;;9.29;100.00
24962;BME280;12992;50.884;13.668;2023-03-31T03:51:31;96368.50;;;9.31;100.00
24962;BME280;12992;50.884;13.668;2023-03-31T03:53:56;96372.56;;;9.33;100.00
24962;BME280;12992;50.884;13.668;2023-03-31T03:56:22;96366.88;;;9.40;100.00
24962;BME280;12992;50.884;13.668;2023-03-31T03:58:47;96373.94;;;9.46;100.00
24962;BME280;12992;50.884;13.668;2023-03-31T04:01:12;96371.22;;;9.46;100.00
24962;BME280;12992;50.884;13.668;2023-03-31T04:03:38;96356.28;;;9.49;100.00
24962;BME280;12992;50.884;13.668;2023-03-31T04:06:04;96357.91;;;9.55;100.00
24962;BME280;12992;50.884;13.668;2023-03-31T04:08:29;96340.50;;;9.51;100.00
24962;BME280;12992;50.884;13.668;2023-03-31T04:10:54;96335.59;;;9.53;100.00
24962;BME280;12992;50.884;13.668;2023-03-31T04:13:20;96323.38;;;9.50;100.00
24962;BME280;12992;50.884;13.668;2023-03-31T04:15:45;96326.94;;;9.46;100.00
24962;BME280;12992;50.884;13.668;2023-03-31T04:18:11;96323.97;;;9.37;100.00
24962;BME280;12992;50.884;13.668;2023-03-31T04:20:43;96307.09;;;9.30;100.00
24962;BME280;12992;50.884;13.668;2023-03-31T04:23:09;96303.03;;;9.22;100.00
24962;BME280;12992;50.884;13.668;2023-03-31T04:25:34;96298.16;;;9.19;100.00
24962;BME280;12992;50.884;13.668;2023-03-31T04:28:03;96297.06;;;9.15;100.00
24962;BME280;12992;50.884;13.668;2023-03-31T04:30:31;96296.25;;;9.20;100.00
24962;BME280;12992;50.884;13.668;2023-03-31T04:33:01;96297.31;;;9.24;100.00
24962;BME280;12992;50.884;13.668;2023-03-31T04:35:28;96307.38;;;9.33;100.00
24962;BME280;12992;50.884;13.668;2023-03-31T04:38:14;96304.66;;;9.39;100.00
24962;BME280;12992;50.884;13.668;2023-03-31T04:40:44;96309.53;;;9.42;100.00
24962;BME280;12992;50.884;13.668;2023-03-31T04:43:09;96295.13;;;9.41;100.00
24962;BME280;12992;50.884;13.668;2023-03-31T04:45:34;96295.13;;;9.41;100.00
24962;BME280;12992;50.884;13.668;2023-03-31T04:48:00;96279.66;;;9.31;100.00
24962;BME280;12992;50.884;13.668;2023-03-31T04:50:25;96284.81;;;9.33;100.00
24962;BME280;12992;50.884;13.668;2023-03-31T04:52:50;96288.63;;;9.37;100.00
24962;BME280;12992;50.884;13.668;2023-03-31T04:55:16;96287.00;;;9.41;100.00
24962;BME280;12992;50.884;13.668;2023-03-31T04:57:41;96282.38;;;9.47;100.00
24962;BME280;12992;50.884;13.668;2023-03-31T05:00:07;96273.66;;;9.45;100.00
24962;BME280;12992;50.884;13.668;2023-03-31T05:02:33;96272.59;;;9.46;100.00
24962;BME280;12992;50.884;13.668;2023-03-31T05:04:58;96274.22;;;9.47;100.00
24962;BME280;12992;50.884;13.668;2023-03-31T05:07:24;96271.22;;;9.48;100.00
24962;BME280;12992;50.884;13.668;2023-03-31T05:09:49;96250.56;;;9.42;100.00
24962;BME280;12992;50.884;13.668;2023-03-31T05:12:14;96255.75;;;9.39;100.00
24962;BME280;12992;50.884;13.668;2023-03-31T05:14:40;96254.66;;;9.34;100.00
24962;BME280;12992;50.884;13.668;2023-03-31T05:17:05;96243.00;;;9.24;100.00
24962;BME280;12992;50.884;13.668;2023-03-31T05:19:30;96238.38;;;9.24;100.00
24962;BME280;12992;50.884;13.668;2023-03-31T05:21:56;96228.34;;;9.20;100.00
24962;BME280;12992;50.884;13.668;2023-03-31T05:24:21;96225.34;;;9.16;100.00
24962;BME280;12992;50.884;13.668;2023-03-31T05:26:46;96214.75;;;9.09;100.00
24962;BME280;12992;50.884;13.668;2023-03-31T05:29:17;96232.41;;;9.17;100.00
24962;BME280;12992;50.884;13.668;2023-03-31T05:31:42;96219.09;;;9.16;100.00
24962;BME280;12992;50.884;13.668;2023-03-31T05:34:08;96220.19;;;9.20;100.00
24962;BME280;12992;50.884;13.668;2023-03-31T05:36:33;96213.38;;;9.22;100.00
24962;BME280;12992;50.884;13.668;2023-03-31T05:38:59;96223.69;;;9.35;100.00
24962;BME280;12992;50.884;13.668;2023-03-31T05:41:24;96244.31;;;9.52;100.00
24962;BME280;12992;50.884;13.668;2023-03-31T05:43:50;96243.19;;;9.68;100.00
24962;BME280;12992;50.884;13.668;2023-03-31T05:46:15;96240.94;;;9.80;100.00
24962;BME280;12992;50.884;13.668;2023-03-31T05:48:42;96238.19;;;9.96;100.00
24962;BME280;12992;50.884;13.668;2023-03-31T05:51:09;96246.28;;;10.11;100.00
24962;BME280;12992;50.884;13.668;2023-03-31T05:53:34;96243.25;;;10.23;100.00
24962;BME280;12992;50.884;13.668;2023-03-31T05:56:01;96228.84;;;10.27;100.00
24962;BME280;12992;50.884;13.668;2023-03-31T05:58:28;96223.34;;;10.32;100.00
24962;BME280;12992;50.884;13.668;2023-03-31T06:01:14;96215.69;;;10.39;100.00
24962;BME280;12992;50.884;13.668;2023-03-31T06:03:47;96203.41;;;10.42;100.00
24962;BME280;12992;50.884;13.668;2023-03-31T06:06:12;96213.19;;;10.48;100.00
24962;BME280;12992;50.884;13.668;2023-03-31T06:08:39;96218.53;;;10.63;100.00
24962;BME280;12992;50.884;13.668;2023-03-31T06:11:06;96203.50;;;10.71;100.00
24962;BME280;12992;50.884;13.668;2023-03-31T06:13:33;96205.88;;;10.77;100.00
24962;BME280;12992;50.884;13.668;2023-03-31T06:15:59;96188.75;;;10.77;100.00
24962;BME280;12992;50.884;13.668;2023-03-31T06:18:30;96181.59;;;10.86;100.00
24962;BME280;12992;50.884;13.668;2023-03-31T06:20:55;96179.34;;;10.93;100.00
24962;BME280;12992;50.884;13.668;2023-03-31T06:23:22;96183.09;;;11.02;100.00
24962;BME280;12992;50.884;13.668;2023-03-31T06:25:47;96187.81;;;11.21;100.00
24962;BME280;12992;50.884;13.668;2023-03-31T06:28:13;96193.63;;;11.38;100.00
24962;BME280;12992;50.884;13.668;2023-03-31T06:30:38;96190.97;;;11.57;100.00
24962;BME280;12992;50.884;13.668;2023-03-31T06:33:04;96205.63;;;11.90;100.00
24962;BME280;12992;50.884;13.668;2023-03-31T06:35:29;96203.84;;;12.23;100.00
24962;BME280;12992;50.884;13.668;2023-03-31T06:37:55;96181.00;;;12.38;98.45
24962;BME280;12992;50.884;13.668;2023-03-31T06:40:21;96178.34;;;12.52;96.97
24962;BME280;12992;50.884;13.668;2023-03-31T06:42:47;96181.72;;;12.62;98.01
24962;BME280;12992;50.884;13.668;2023-03-31T06:45:12;96170.59;;;12.59;96.77
24962;BME280;12992;50.884;13.668;2023-03-31T06:47:37;96141.16;;;12.56;94.70
24962;BME280;12992;50.884;13.668;2023-03-31T06:50:06;96145.34;;;12.67;95.70
24962;BME280;12992;50.884;13.668;2023-03-31T06:52:32;96135.41;;;12.71;92.71
24962;BME280;12992;50.884;13.668;2023-03-31T06:54:57;96120.53;;;12.63;92.56
24962;BME280;12992;50.884;13.668;2023-03-31T06:57:24;96122.97;;;12.65;93.98
24962;BME280;12992;50.884;13.668;2023-03-31T06:59:50;96110.19;;;12.60;93.36
24962;BME280;12992;50.884;13.668;2023-03-31T07:02:15;96085.88;;;12.45;91.72
24962;BME280;12992;50.884;13.668;2023-03-31T07:04:40;96091.41;;;12.40;94.24
24962;BME280;12992;50.884;13.668;2023-03-31T07:07:05;96089.00;;;12.38;94.08
24962;BME280;12992;50.884;13.668;2023-03-31T07:09:31;96083.41;;;12.30;94.28
24962;BME280;12992;50.884;13.668;2023-03-31T07:11:56;96084.72;;;12.32;96.71
24962;BME280;12992;50.884;13.668;2023-03-31T07:14:22;96096.56;;;12.41;98.79
24962;BME280;12992;50.884;13.668;2023-03-31T07:16:47;96092.44;;;12.44;97.73
24962;BME280;12992;50.884;13.668;2023-03-31T07:19:12;96077.78;;;12.40;94.35
24962;BME280;12992;50.884;13.668;2023-03-31T07:21:39;96078.38;;;12.37;95.68
24962;BME280;12992;50.884;13.668;2023-03-31T07:24:04;96079.91;;;12.43;96.66
24962;BME280;12992;50.884;13.668;2023-03-31T07:26:30;96083.88;;;12.51;94.97
24962;BME280;12992;50.884;13.668;2023-03-31T07:28:55;96083.13;;;12.64;95.29
24962;BME280;12992;50.884;13.668;2023-03-31T07:31:22;96100.56;;;12.82;95.13
24962;BME280;12992;50.884;13.668;2023-03-31T07:33:47;96122.69;;;13.13;97.99
24962;BME280;12992;50.884;13.668;2023-03-31T07:36:13;96107.16;;;13.27;91.26
24962;BME280;12992;50.884;13.668;2023-03-31T07:38:39;96108.69;;;13.47;91.56
24962;BME280;12992;50.884;13.668;2023-03-31T07:41:09;96106.75;;;13.61;90.10
24962;BME280;12992;50.884;13.668;2023-03-31T07:43:34;96086.69;;;13.66;88.78
24962;BME280;12992;50.884;13.668;2023-03-31T07:46:00;96078.47;;;13.66;88.53
24962;BME280;12992;50.884;13.668;2023-03-31T07:48:25;96060.03;;;13.57;89.30
24962;BME280;12992;50.884;13.668;2023-03-31T07:50:53;96037.47;;;13.38;88.05
24962;BME280;12992;50.884;13.668;2023-03-31T07:53:26;96027.56;;;13.28;89.93
24962;BME280;12992;50.884;13.668;2023-03-31T07:55:51;96034.03;;;13.32;90.73
24962;BME280;12992;50.884;13.668;2023-03-31T07:58:17;96023.53;;;13.26;89.68
24962;BME280;12992;50.884;13.668;2023-03-31T08:00:42;96018.88;;;13.26;89.11
24962;BME280;12992;50.884;13.668;2023-03-31T08:03:07;96013.53;;;13.16;90.27
24962;BME280;12992;50.884;13.668;2023-03-31T08:05:33;96025.53;;;13.20;90.57
24962;BME280;12992;50.884;13.668;2023-03-31T08:07:58;96033.66;;;13.25;92.57
24962;BME280;12992;50.884;13.668;2023-03-31T08:10:25;96032.00;;;13.24;89.99
24962;BME280;12992;50.884;13.668;2023-03-31T08:12:51;96049.03;;;13.35;94.34
24962;BME280;12992;50.884;13.668;2023-03-31T08:15:17;96044.69;;;13.34;90.26
24962;BME280;12992;50.884;13.668;2023-03-31T08:17:43;96029.59;;;13.37;89.35
24962;BME280;12992;50.884;13.668;2023-03-31T08:20:08;96046.41;;;13.44;89.88
24962;BME280;12992;50.884;13.668;2023-03-31T08:22:38;96026.03;;;13.36;90.30
24962;BME280;12992;50.884;13.668;2023-03-31T08:25:04;96023.72;;;13.29;90.32
24962;BME280;12992;50.884;13.668;2023-03-31T08:27:34;96021.69;;;13.21;89.45
24962;BME280;12992;50.884;13.668;2023-03-31T08:30:00;96003.84;;;13.10;91.57
24962;BME280;12992;50.884;13.668;2023-03-31T08:32:31;96012.03;;;13.10;91.54
24962;BME280;12992;50.884;13.668;2023-03-31T08:34:57;96007.28;;;13.02;93.68
24962;BME280;12992;50.884;13.668;2023-03-31T08:37:22;95999.38;;;12.87;96.99
24962;BME280;12992;50.884;13.668;2023-03-31T08:39:48;95982.25;;;12.67;92.94
24962;BME280;12992;50.884;13.668;2023-03-31T08:42:23;95975.75;;;12.50;94.78
24962;BME280;12992;50.884;13.668;2023-03-31T08:44:59;95973.28;;;12.34;97.60
24962;BME280;12992;50.884;13.668;2023-03-31T08:47:29;95974.38;;;12.19;100.00
24962;BME280;12992;50.884;13.668;2023-03-31T08:50:04;95964.22;;;12.06;99.83
24962;BME280;12992;50.884;13.668;2023-03-31T08:52:38;95965.56;;;11.90;100.00
24962;BME280;12992;50.884;13.668;2023-03-31T08:55:27;95976.66;;;11.80;100.00
24962;BME280;12992;50.884;13.668;2023-03-31T08:58:18;95970.44;;;11.55;100.00
24962;BME280;12992;50.884;13.668;2023-03-31T09:01:01;95982.59;;;11.44;100.00
24962;BME280;12992;50.884;13.668;2023-03-31T09:03:42;95970.22;;;11.33;100.00
24962;BME280;12992;50.884;13.668;2023-03-31T09:06:26;95966.22;;;11.25;100.00
24962;BME280;12992;50.884;13.668;2023-03-31T09:09:01;95963.81;;;11.24;100.00
24962;BME280;12992;50.884;13.668;2023-03-31T09:11:34;95963.25;;;11.22;100.00
24962;BME280;12992;50.884;13.668;2023-03-31T09:14:25;95965.13;;;11.26;100.00
24962;BME280;12992;50.884;13.668;2023-03-31T09:17:03;95982.00;;;11.47;100.00
24962;BME280;12992;50.884;13.668;2023-03-31T09:19:37;95989.97;;;11.62;100.00
24962;BME280;12992;50.884;13.668;2023-03-31T09:22:11;95988.13;;;11.77;100.00
24962;BME280;12992;50.884;13.668;2023-03-31T09:24:48;95989.41;;;11.84;100.00
24962;BME280;12992;50.884;13.668;2023-03-31T09:27:17;95977.09;;;11.87;100.00
24962;BME280;12992;50.884;13.668;2023-03-31T09:30:00;95949.16;;;11.76;100.00
24962;BME280;12992;50.884;13.668;2023-03-31T09:32:29;95942.44;;;11.69;100.00
24962;BME280;12992;50.884;13.668;2023-03-31T09:34:59;95946.97;;;11.73;100.00
24962;BME280;12992;50.884;13.668;2023-03-31T09:37:27;95941.78;;;11.77;100.00
24962;BME280;12992;50.884;13.668;2023-03-31T09:39:54;95933.59;;;11.77;100.00
24962;BME280;12992;50.884;13.668;2023-03-31T09:42:19;95916.69;;;11.75;100.00
24962;BME280;12992;50.884;13.668;2023-03-31T09:44:46;95923.25;;;11.74;100.00
24962;BME280;12992;50.884;13.668;2023-03-31T09:47:20;95933.00;;;11.80;100.00
24962;BME280;12992;50.884;13.668;2023-03-31T09:49:48;95914.06;;;11.70;100.00
24962;BME280;12992;50.884;13.668;2023-03-31T09:52:30;95904.94;;;11.60;100.00
24962;BME280;12992;50.884;13.668;2023-03-31T09:55:02;95889.63;;;11.46;100.00
24962;BME280;12992;50.884;13.668;2023-03-31T09:57:33;95876.59;;;11.24;100.00
24962;BME280;12992;50.884;13.668;2023-03-31T10:02:41;95870.50;;;11.13;100.00
24962;BME280;12992;50.884;13.668;2023-03-31T10:05:21;95869.09;;;11.16;100.00
24962;BME280;12992;50.884;13.668;2023-03-31T10:07:46;95877.78;;;11.18;100.00
24962;BME280;12992;50.884;13.668;2023-03-31T10:10:28;95881.09;;;11.15;100.00
24962;BME280;12992;50.884;13.668;2023-03-31T10:12:55;95892.41;;;11.22;100.00
24962;BME280;12992;50.884;13.668;2023-03-31T10:15:25;95883.16;;;11.23;100.00
24962;BME280;12992;50.884;13.668;2023-03-31T10:17:51;95886.75;;;11.18;100.00
24962;BME280;12992;50.884;13.668;2023-03-31T10:20:21;95868.28;;;11.15;100.00
24962;BME280;12992;50.884;13.668;2023-03-31T10:22:51;95875.06;;;11.18;100.00
24962;BME280;12992;50.884;13.668;2023-03-31T10:25:21;95868.28;;;11.15;100.00
24962;BME280;12992;50.884;13.668;2023-03-31T10:27:51;95874.84;;;11.14;100.00
24962;BME280;12992;50.884;13.668;2023-03-31T10:30:22;95852.97;;;11.00;100.00
24962;BME280;12992;50.884;13.668;2023-03-31T10:32:48;95837.88;;;10.89;100.00
24962;BME280;12992;50.884;13.668;2023-03-31T10:35:34;95821.22;;;10.72;100.00
24962;BME280;12992;50.884;13.668;2023-03-31T10:38:09;95829.25;;;10.63;100.00
24962;BME280;12992;50.884;13.668;2023-03-31T10:40:36;95816.56;;;10.54;100.00
24962;BME280;12992;50.884;13.668;2023-03-31T10:43:15;95812.88;;;10.44;100.00
24962;BME280;12992;50.884;13.668;2023-03-31T10:45:46;95829.94;;;10.50;100.00
24962;BME280;12992;50.884;13.668;2023-03-31T10:48:32;95834.53;;;10.55;100.00
24962;BME280;12992;50.884;13.668;2023-03-31T10:51:17;95844.75;;;10.63;100.00
24962;BME280;12992;50.884;13.668;2023-03-31T10:53:48;95847.41;;;10.68;100.00
24962;BME280;12992;50.884;13.668;2023-03-31T10:59:32;95831.88;;;10.68;100.00
24962;BME280;12992;50.884;13.668;2023-03-31T11:07:57;95827.25;;;10.69;100.00
24962;BME280;12992;50.884;13.668;2023-03-31T11:10:55;95822.63;;;10.69;100.00
24962;BME280;12992;50.884;13.668;2023-03-31T11:13:30;95819.38;;;10.67;100.00
24962;BME280;12992;50.884;13.668;2023-03-31T11:16:43;95807.22;;;10.60;100.00
24962;BME280;12992;50.884;13.668;2023-03-31T11:22:00;95788.22;;;10.36;100.00
24962;BME280;12992;50.884;13.668;2023-03-31T11:24:42;95784.53;;;10.27;100.00
24962;BME280;12992;50.884;13.668;2023-03-31T11:30:07;95783.06;;;10.10;100.00
24962;BME280;12992;50.884;13.668;2023-03-31T11:35:52;95740.97;;;9.84;100.00
24962;BME280;12992;50.884;13.668;2023-03-31T11:41:09;95723.03;;;9.59;100.00
24962;BME280;12992;50.884;13.668;2023-03-31T11:43:51;95693.53;;;9.47;100.00
24962;BME280;12992;50.884;13.668;2023-03-31T11:46:21;95708.41;;;9.55;100.00
24962;BME280;12992;50.884;13.668;2023-03-31T11:48:59;95705.22;;;9.48;100.00
24962;BME280;12992;50.884;13.668;2023-03-31T11:51:30;95715.28;;;9.47;100.00
24962;BME280;12992;50.884;13.668;2023-03-31T11:54:01;95714.50;;;9.42;100.00
24962;BME280;12992;50.884;13.668;2023-03-31T11:56:36;95716.13;;;9.43;100.00
24962;BME280;12992;50.884;13.668;2023-03-31T11:59:03;95713.19;;;9.39;100.00
24962;BME280;12992;50.884;13.668;2023-03-31T12:04:36;95720.41;;;9.49;100.00
24962;BME280;12992;50.884;13.668;2023-03-31T12:07:35;95728.22;;;9.55;100.00
24962;BME280;12992;50.884;13.668;2023-03-31T12:12:41;95721.91;;;9.60;100.00
24962;BME280;12992;50.884;13.668;2023-03-31T12:15:18;95716.19;;;9.61;100.00
24962;BME280;12992;50.884;13.668;2023-03-31T12:17:49;95721.81;;;9.70;100.00
24962;BME280;12992;50.884;13.668;2023-03-31T12:20:28;95720.13;;;9.74;100.00
24962;BME280;12992;50.884;13.668;2023-03-31T12:22:57;95721.94;;;9.84;100.00
24962;BME280;12992;50.884;13.668;2023-03-31T12:25:23;95701.84;;;9.80;100.00
24962;BME280;12992;50.884;13.668;2023-03-31T12:27:50;95709.72;;;9.81;100.00
24962;BME280;12992;50.884;13.668;2023-03-31T12:33:02;95702.09;;;9.83;100.00
24962;BME280;12992;50.884;13.668;2023-03-31T12:44:41;95705.19;;;9.96;100.00
24962;BME280;12992;50.884;13.668;2023-03-31T12:50:51;95712.88;;;10.12;100.00
24962;BME280;12992;50.884;13.668;2023-03-31T12:55:55;95679.84;;;10.00;100.00
24962;BME280;12992;50.884;13.668;2023-03-31T13:03:48;95680.88;;;10.04;100.00
24962;BME280;12992;50.884;13.668;2023-03-31T13:09:02;95682.66;;;10.14;100.00
24962;BME280;12992;50.884;13.668;2023-03-31T13:11:41;95691.78;;;10.23;100.00
24962;BME280;12992;50.884;13.668;2023-03-31T13:14:16;95679.81;;;10.24;100.00
24962;BME280;12992;50.884;13.668;2023-03-31T13:16:44;95671.88;;;10.28;100.00
24962;BME280;12992;50.884;13.668;2023-03-31T13:19:12;95664.75;;;10.32;100.00
24962;BME280;12992;50.884;13.668;2023-03-31T13:22:01;95693.28;;;10.72;100.00
24962;BME280;12992;50.884;13.668;2023-03-31T13:24:28;95682.03;;;10.92;100.00
24962;BME280;12992;50.884;13.668;2023-03-31T13:29:41;95666.19;;;10.94;100.00
24962;BME280;12992;50.884;13.668;2023-03-31T13:32:21;95672.88;;;11.02;100.00
24962;BME280;12992;50.884;13.668;2023-03-31T13:35:01;95670.63;;;11.23;100.00
24962;BME280;12992;50.884;13.668;2023-03-31T13:46:31;95622.13;;;12.74;100.00
24962;BME280;12992;50.884;13.668;2023-03-31T13:49:33;95662.97;;;13.24;100.00
24962;BME280;12992;50.884;13.668;2023-03-31T13:52:22;95674.59;;;13.61;100.00
24962;BME280;12992;50.884;13.668;2023-03-31T14:00:58;95558.75;;;12.19;100.00
24962;BME280;12992;50.884;13.668;2023-03-31T14:08:52;95567.25;;;11.68;100.00
24962;BME280;12992;50.884;13.668;2023-03-31T14:11:27;95570.09;;;11.62;100.00
24962;BME280;12992;50.884;13.668;2023-03-31T14:16:37;95566.16;;;11.69;100.00
24962;BME280;12992;50.884;13.668;2023-03-31T14:22:14;95580.25;;;11.98;100.00
24962;BME280;12992;50.884;13.668;2023-03-31T14:25:14;95544.91;;;11.79;100.00
24962;BME280;12992;50.884;13.668;2023-03-31T14:30:30;95525.97;;;11.47;100.00
24962;BME280;12992;50.884;13.668;2023-03-31T14:35:34;95525.47;;;11.45;100.00
24962;BME280;12992;50.884;13.668;2023-03-31T14:38:13;95536.88;;;11.60;100.00
24962;BME280;12992;50.884;13.668;2023-03-31T14:40:52;95574.59;;;11.95;100.00
24962;BME280;12992;50.884;13.668;2023-03-31T14:43:25;95586.66;;;12.16;100.00
24962;BME280;12992;50.884;13.668;2023-03-31T14:46:05;95563.22;;;12.15;100.00
24962;BME280;12992;50.884;13.668;2023-03-31T14:48:44;95545.88;;;12.11;100.00
24962;BME280;12992;50.884;13.668;2023-03-31T14:51:13;95557.13;;;12.18;100.00
24962;BME280;12992;50.884;13.668;2023-03-31T14:53:39;95545.00;;;12.24;100.00
24962;BME280;12992;50.884;13.668;2023-03-31T14:56:08;95554.38;;;12.32;100.00
24962;BME280;12992;50.884;13.668;2023-03-31T14:58:46;95546.06;;;12.37;100.00